Terminal Aerodrome Forecast
Issued by NWS Albany, NY

Home | Current Version | Previous Version | Text Only | Print | Product List | Glossary On
Versions: 1 2 3 4 5 6 7 8 9 10 11 12 13 14 15 16 17 18
000
FTUS41 KALY 272332
TAFGFL
TAF
KGFL 272332Z 2800/2824 VRB06KT P6SM SCT250
     FM280700 00000KT P6SM BCFG SCT050 SCT120 BKN250
     FM281500 17003KT P6SM SCT050 BKN100 BKN200 PROB30 2817/2823 6SM
      -TSRA BR BKN050CB=

USA.gov is the U.S. government's official web portal to all federal, state and local government web resources and services.